Nearby METAR Reports

KLNK - Lincoln, Nebraska, USA
Distance from station: WNW 8mi, 13km
Updated: Thu, 13-Dec-2018 6:54am CST
Clear
Clear
 Wind from N
Wind: N 16 mph , 26 km/h
Temperature: 32°F , 0°C
Wind Chill: 21°F , -6°C
Dew Point: 25°F , -4°C
Humidity: 75%
Barometer: 29.92 inHg , 1013.2 hPa
Clouds: Clear
Visibility: 10 miles , 16 km
2018/12/13 12:54 KLNK 131254Z 35014KT 10SM CLR 00/M04 A2992 RMK AO2 SLP142 T00001039
KAHQ - Wahoo, Nebraska, USA
Distance from station: N 31mi, 49km
Updated: Thu, 13-Dec-2018 6:55am CST
Mostly Cloudy
Mostly Cloudy
 Wind from NNW
Wind: NNW 14 mph , 22 km/h
Temperature: 28°F , -2°C
Wind Chill: 17°F , -8°C
Dew Point: 25°F , -4°C
Humidity: 86%
Barometer: 29.91 inHg , 1012.9 hPa
Clouds: Mostly Cloudy
Visibility: 10 miles , 16 km
Cloud details: Mostly Cloudy 11000 ft
2018/12/13 12:55 KAHQ 131255Z AUTO 34012KT 10SM BKN110 M02/M04 A2991 RMK AO2 T10191037
 
KBIE - Beatrice Municip, Nebraska, USA
Distance from station: S 36mi, 57km
Updated: Thu, 13-Dec-2018 6:55am CST
Clear
Clear
 Wind from NNW
Wind: NNW 12 mph , 19 km/h
Temperature: 32°F , 0°C
Wind Chill: 23°F , -5°C
Dew Point: 28°F , -2°C
Humidity: 87%
Barometer: 29.90 inHg , 1012.5 hPa
Clouds: Clear
Visibility: 10 miles , 16 km
2018/12/13 12:55 KBIE 131255Z AUTO 34010KT 10SM CLR 00/M02 A2990 RMK AO2 T00001020
KMLE - Omaha/Millard, Nebraska, USA
Distance from station: NE 39mi, 63km
Updated: Thu, 13-Dec-2018 6:55am CST
Clear
Clear
 Wind from NW
Wind: NW 10 mph , 17 km/h
Temperature: 30°F , -1°C
Wind Chill: 21°F , -6°C
Dew Point: 28°F , -2°C
Humidity: 93%
Barometer: 29.90 inHg , 1012.5 hPa
Clouds: Clear
Visibility: 10 miles , 16 km
2018/12/13 12:55 KMLE 131255Z AUTO 32009KT 10SM CLR M01/M02 A2990 RMK AO2 T10101016
 
KPMV - Plattsmouth Muni, Nebraska, USA
Distance from station: ENE 39mi, 63km
Updated: Thu, 13-Dec-2018 6:55am CST
Clear
Clear
 Wind from WNW
Wind: WNW 12 mph , 19 km/h
Temperature: 28°F , -2°C
Wind Chill: 18°F , -8°C
Dew Point: 28°F , -2°C
Humidity: 100%
Barometer: 29.87 inHg , 1011.5 hPa
Clouds: Clear
Visibility: 10 miles , 16 km
2018/12/13 12:55 KPMV 131255Z AUTO 30010KT 10SM CLR M02/M02 A2987 RMK AO2 T10181024
KAFK - Nebraska City, Nebraska, USA
Distance from station: ESE 43mi, 69km
Updated: Thu, 13-Dec-2018 6:55am CST
Overcast
Overcast
 Wind from NNW
Wind: NNW 9 mph , 15 km/h
Temperature: 32°F , 0°C
Wind Chill: 24°F , -4°C
Dew Point: 28°F , -2°C
Humidity: 87%
Barometer: 29.87 inHg , 1011.5 hPa
Clouds: Overcast
Visibility: 10 miles , 16 km
Cloud details: Overcast 4700 ft
2018/12/13 12:55 KAFK 131255Z AUTO 33008KT 10SM OVC047 00/M02 A2987 RMK AO2 T00011020
 
KOFF - Offutt Afb/Belle, Nebraska, USA
Distance from station: ENE 44mi, 70km
Updated: Thu, 13-Dec-2018 6:56am CST
Overcast
Overcast
 Wind from WNW
Wind: WNW 8 mph , 13 km/h
Temperature: 25°F , -4°C
Wind Chill: 16°F , -9°C
Dew Point: 25°F , -4°C
Humidity: 100%
Barometer: 29.87 inHg , 1011.5 hPa
Clouds: Overcast
Visibility: 10 miles , 16 km
Cloud details: Overcast 14000 ft
2018/12/13 12:56 KOFF 131256Z AUTO 30007KT 10SM OVC140 M04/M04 A2987 RMK AO2 SLP131 T10361036 $
KFET - Fremont Muni Arp, Nebraska, USA
Distance from station: N 46mi, 74km
Updated: Thu, 13-Dec-2018 6:55am CST
Clear
Clear
 Wind from NNW
Wind: NNW 9 mph , 15 km/h
Temperature: 30°F , -1°C
Wind Chill: 22°F , -6°C
Dew Point: 27°F , -3°C
Humidity: 86%
Barometer: 29.92 inHg , 1013.2 hPa
Clouds: Clear
Visibility: 10 miles , 16 km
2018/12/13 12:55 KFET 131255Z AUTO 33008KT 10SM CLR M01/M03 A2992 RMK AO2 T10111033
 
KBTA - Blair Muni, Nebraska, USA
Distance from station: NNE 51mi, 82km
Updated: Thu, 13-Dec-2018 6:55am CST
Partly Cloudy
Partly Cloudy
 Wind from NW
Wind: NW 8 mph , 13 km/h
Temperature: 28°F , -2°C
Wind Chill: 20°F , -7°C
Dew Point: 27°F , -3°C
Humidity: 93%
Barometer: 29.89 inHg , 1012.2 hPa
Clouds: Partly Cloudy
Visibility: 10 miles , 16 km
Cloud details: Partly Cloudy 700 ft
2018/12/13 12:55 KBTA 131255Z AUTO 32007KT 10SM SCT007 M02/M03 A2989 RMK AO2 T10191028
KJYR - York, Nebraska, USA
Distance from station: W 52mi, 84km
Updated: Thu, 13-Dec-2018 6:55am CST
Overcast
Overcast
 Wind from NNW
Wind: NNW 15 mph , 24 km/h, Gust: 20 mph , 31 km/h
Temperature: 37°F , 3°C
Wind Chill: 28°F , -2°C
Dew Point: 32°F , 0°C
Humidity: 81%
Barometer: 29.93 inHg , 1013.5 hPa
Clouds: Overcast
Visibility: 10 miles , 16 km
Cloud details: Overcast 2000 ft
2018/12/13 12:55 KJYR 131255Z AUTO 34013G17KT 10SM OVC020 03/00 A2993 RMK AO2
 
KOMA - Omaha/Eppley, Nebraska, USA
Distance from station: NE 53mi, 85km
Updated: Thu, 13-Dec-2018 6:52am CST
Mostly Cloudy
Mostly Cloudy
 Wind from NNW
Wind: NNW 8 mph , 13 km/h
Temperature: 23°F , -5°C
Wind Chill: 14°F , -10°C
Dew Point: 19°F , -7°C
Humidity: 86%
Barometer: 29.89 inHg , 1012.2 hPa
Clouds: Mostly Cloudy
Visibility: 8 miles , 13 km
Cloud details: Mostly Cloudy 18000 ft
2018/12/13 12:52 KOMA 131252Z 33007KT 8SM BKN180 M05/M07 A2989 RMK AO2 SLP134 T10501067
KOLU - Columbus Muni, Nebraska, USA
Distance from station: NW 58mi, 93km
Updated: Thu, 13-Dec-2018 6:56am CST
Overcast
Overcast
 Wind from NNW
Wind: NNW 15 mph , 24 km/h
Temperature: 36°F , 2°C
Wind Chill: 27°F , -3°C
Dew Point: 34°F , 1°C
Humidity: 93%
Barometer: 29.93 inHg , 1013.5 hPa
Clouds: Overcast
Visibility: 10 miles , 16 km
Cloud details: Overcast 2000 ft
2018/12/13 12:56 KOLU 131256Z AUTO 33013KT 10SM OVC020 02/01 A2993 RMK AO2 SLP148 T00220006 FZRANO